Time;durP1;ratioP1;P1;durP2;ratioP2;P2;SDS_P1;SDS_P2;PMS_P1;PMS_P2;Temp;Humidity;BMP_temperature;BMP_pressure;BME280_temperature;BME280_humidity;BME280_pressure;Samples;Min_cycle;Max_cycle;Signal;HPM_P1;HPM_P2
2021/06/05 00:01:39;;;;;;;4.30;1.75;;;15.70;60.30;;;;;;4792082;29;20078;-71
2021/06/05 00:04:08;;;;;;;7.78;1.55;;;15.60;60.30;;;;;;4790864;29;20080;-71
2021/06/05 00:06:36;;;;;;;2.75;1.67;;;15.60;60.10;;;;;;4805425;29;20103;-72
2021/06/05 00:09:07;;;;;;;4.60;1.75;;;15.60;60.10;;;;;;4805209;29;20055;-70
2021/06/05 00:11:36;;;;;;;5.75;1.73;;;15.50;60.10;;;;;;4791389;29;20063;-69
2021/06/05 00:14:07;;;;;;;4.32;2.00;;;15.50;60.20;;;;;;4793119;29;20063;-71
2021/06/05 00:16:43;;;;;;;4.25;1.90;;;15.50;60.30;;;;;;4803893;29;20062;-70
2021/06/05 00:19:14;;;;;;;3.95;1.70;;;15.50;60.30;;;;;;4802753;29;20062;-69
2021/06/05 00:21:43;;;;;;;6.25;1.73;;;15.40;60.40;;;;;;4790091;29;20070;-70
2021/06/05 00:24:13;;;;;;;2.75;1.67;;;15.40;60.60;;;;;;4804549;29;20062;-68
2021/06/05 00:26:41;;;;;;;3.88;1.85;;;15.30;60.70;;;;;;4791403;29;20066;-69
2021/06/05 00:29:09;;;;;;;3.90;1.70;;;15.30;60.80;;;;;;4789785;29;20055;-71
2021/06/05 00:31:37;;;;;;;3.42;1.63;;;15.30;60.90;;;;;;4801643;29;20066;-72
2021/06/05 00:34:05;;;;;;;4.63;2.05;;;15.30;60.90;;;;;;4798458;29;20058;-69
2021/06/05 00:36:36;;;;;;;5.15;2.00;;;15.30;61.10;;;;;;4790368;29;20478;-71
2021/06/05 00:39:05;;;;;;;3.55;2.10;;;15.20;61.30;;;;;;4804007;29;20067;-70
2021/06/05 00:41:34;;;;;;;3.92;2.08;;;15.10;61.50;;;;;;4772401;30;20056;-69
2021/06/05 00:44:06;;;;;;;7.15;2.53;;;15.10;61.70;;;;;;4806097;29;20051;-70
2021/06/05 00:46:35;;;;;;;5.22;2.35;;;15.00;61.90;;;;;;4817202;29;20059;-69
2021/06/05 00:49:06;;;;;;;7.03;2.72;;;15.00;62.10;;;;;;4818303;29;20058;-71
2021/06/05 00:51:45;;;;;;;5.95;2.40;;;15.00;62.40;;;;;;4790540;29;20059;-70
2021/06/05 00:54:16;;;;;;;4.18;2.08;;;14.90;62.70;;;;;;4804551;29;20054;-69
2021/06/05 00:57:00;;;;;;;6.43;2.72;;;15.00;62.60;;;;;;4803482;29;20494;-72
2021/06/05 00:59:33;;;;;;;5.18;2.55;;;14.90;62.80;;;;;;4803029;29;20058;-70
2021/06/05 01:02:03;;;;;;;5.40;2.40;;;14.90;62.70;;;;;;4794821;29;20072;-71
2021/06/05 01:04:33;;;;;;;5.65;2.53;;;14.90;62.80;;;;;;4806388;29;20066;-71
2021/06/05 01:07:07;;;;;;;7.30;2.90;;;14.90;62.90;;;;;;4807287;29;20409;-69
2021/06/05 01:09:46;;;;;;;6.30;2.80;;;14.80;63.10;;;;;;4817524;29;20050;-71
2021/06/05 01:12:21;;;;;;;7.47;2.85;;;14.80;63.20;;;;;;4822482;29;20059;-71
2021/06/05 01:14:56;;;;;;;5.13;2.42;;;14.80;63.30;;;;;;4822949;29;20055;-70
2021/06/05 01:17:34;;;;;;;4.70;2.50;;;14.80;63.50;;;;;;4792962;29;20051;-71
2021/06/05 01:20:18;;;;;;;9.48;3.00;;;14.70;63.60;;;;;;4792228;29;20059;-72
2021/06/05 01:23:16;;;;;;;3.97;2.83;;;14.70;63.80;;;;;;4795624;29;20059;-72
2021/06/05 01:26:06;;;;;;;5.32;2.67;;;14.60;63.90;;;;;;4804404;29;20081;-72
2021/06/05 01:28:37;;;;;;;6.53;2.63;;;14.60;64.10;;;;;;4804076;29;20375;-72
2021/06/05 01:31:14;;;;;;;5.75;2.97;;;14.60;64.00;;;;;;4789070;29;20063;-72
2021/06/05 01:33:43;;;;;;;6.25;2.90;;;14.60;64.10;;;;;;4787295;29;20059;-70
2021/06/05 01:36:18;;;;;;;4.22;2.78;;;14.60;64.20;;;;;;4802964;29;20059;-71
2021/06/05 01:38:50;;;;;;;6.47;2.92;;;14.60;64.20;;;;;;4789205;30;20055;-69
2021/06/05 01:41:26;;;;;;;3.70;2.83;;;14.50;64.40;;;;;;4788512;30;20399;-71
2021/06/05 01:43:55;;;;;;;4.72;2.67;;;14.50;64.30;;;;;;4788941;29;20406;-69
2021/06/05 01:46:33;;;;;;;5.80;3.25;;;14.50;64.40;;;;;;4774166;30;20478;-72
2021/06/05 01:49:02;;;;;;;3.95;2.95;;;14.40;64.70;;;;;;4790404;29;20047;-69
2021/06/05 01:51:37;;;;;;;3.60;2.90;;;14.40;64.60;;;;;;4790056;29;20047;-69
2021/06/05 01:54:26;;;;;;;6.28;3.25;;;14.40;64.70;;;;;;4803913;29;20066;-70
2021/06/05 01:56:59;;;;;;;8.45;3.03;;;14.40;64.80;;;;;;4787708;30;20055;-69
2021/06/05 01:59:48;;;;;;;3.53;2.78;;;14.30;64.80;;;;;;4789700;29;20055;-69
2021/06/05 02:02:20;;;;;;;5.35;3.00;;;14.30;64.80;;;;;;4813295;29;20051;-69
2021/06/05 02:04:52;;;;;;;4.20;3.28;;;14.30;64.90;;;;;;4804218;29;20051;-70
2021/06/05 02:07:22;;;;;;;7.75;2.92;;;14.30;64.90;;;;;;4788893;30;20387;-69
2021/06/05 02:09:52;;;;;;;5.85;2.92;;;14.30;65.00;;;;;;4788469;29;20051;-70
2021/06/05 02:12:33;;;;;;;5.00;3.20;;;14.30;65.10;;;;;;4789838;29;20088;-72
2021/06/05 02:15:38;;;;;;;5.85;3.00;;;14.30;65.20;;;;;;4790050;29;20063;-71
2021/06/05 02:18:22;;;;;;;4.47;2.72;;;14.20;65.40;;;;;;4789607;29;20059;-69
2021/06/05 02:21:16;;;;;;;7.40;3.47;;;14.20;65.40;;;;;;4790305;29;20070;-71
2021/06/05 02:23:55;;;;;;;3.70;2.50;;;14.10;65.50;;;;;;4807880;29;20148;-68
2021/06/05 02:26:24;;;;;;;8.38;2.70;;;14.10;65.50;;;;;;4807529;29;20050;-68
2021/06/05 02:29:05;;;;;;;6.00;2.88;;;14.10;65.50;;;;;;4815275;29;20402;-68
2021/06/05 02:31:36;;;;;;;4.28;2.88;;;14.10;65.60;;;;;;4792587;29;20051;-69
2021/06/05 02:34:08;;;;;;;5.55;3.28;;;14.10;65.60;;;;;;4793100;29;20066;-71
2021/06/05 02:36:45;;;;;;;4.82;3.10;;;14.10;65.60;;;;;;4792168;29;20059;-72
2021/06/05 02:39:18;;;;;;;5.03;3.10;;;14.10;65.70;;;;;;4792169;30;20059;-71
2021/06/05 02:41:52;;;;;;;7.88;3.05;;;14.10;65.60;;;;;;4806405;29;20370;-70
2021/06/05 02:44:24;;;;;;;4.18;3.20;;;14.20;65.60;;;;;;4805894;29;20062;-72
2021/06/05 02:46:52;;;;;;;4.07;2.88;;;14.20;65.70;;;;;;4791727;30;20070;-69
2021/06/05 02:49:29;;;;;;;6.57;3.38;;;14.20;65.60;;;;;;4791726;29;20074;-71
2021/06/05 02:52:02;;;;;;;7.75;2.70;;;14.10;65.70;;;;;;4806660;29;20379;-70
2021/06/05 02:54:34;;;;;;;3.90;2.80;;;14.10;65.70;;;;;;4806766;29;20482;-71
2021/06/05 02:57:06;;;;;;;5.05;3.20;;;14.00;65.80;;;;;;4790830;30;20051;-70
2021/06/05 02:59:41;;;;;;;6.13;3.30;;;14.00;65.80;;;;;;4797530;29;20070;-71
2021/06/05 03:02:09;;;;;;;8.05;3.30;;;14.00;65.80;;;;;;4792650;29;20118;-70
2021/06/05 03:04:37;;;;;;;7.35;3.15;;;14.00;65.70;;;;;;4791872;29;20059;-69
2021/06/05 03:07:08;;;;;;;5.47;3.20;;;13.90;65.80;;;;;;4805456;29;20055;-70
2021/06/05 03:09:37;;;;;;;7.78;3.28;;;13.90;65.80;;;;;;4805705;29;20055;-72
2021/06/05 03:12:09;;;;;;;5.38;3.10;;;13.90;65.90;;;;;;4798107;29;20406;-71
2021/06/05 03:14:39;;;;;;;5.00;3.00;;;13.80;65.90;;;;;;4795977;29;20066;-68
2021/06/05 03:17:10;;;;;;;4.50;2.80;;;13.80;66.00;;;;;;4802452;29;20051;-71
2021/06/05 03:19:39;;;;;;;6.00;2.95;;;13.80;66.10;;;;;;4800907;29;20070;-71
2021/06/05 03:22:07;;;;;;;5.18;3.30;;;13.70;66.20;;;;;;4824562;29;20074;-72
2021/06/05 03:24:45;;;;;;;8.32;3.20;;;13.70;66.20;;;;;;4823423;29;20043;-72
2021/06/05 03:27:15;;;;;;;4.75;3.38;;;13.70;66.20;;;;;;4818038;29;20066;-70
2021/06/05 03:29:43;;;;;;;7.43;3.80;;;13.60;66.30;;;;;;4794410;29;20055;-68
2021/06/05 03:32:12;;;;;;;4.25;3.45;;;13.60;66.30;;;;;;4809958;29;20058;-72
2021/06/05 03:34:41;;;;;;;5.90;3.38;;;13.60;66.30;;;;;;4822872;29;20050;-69
2021/06/05 03:37:13;;;;;;;4.47;3.25;;;13.60;66.40;;;;;;4822650;29;20065;-72
2021/06/05 03:39:45;;;;;;;6.43;4.15;;;13.50;66.40;;;;;;4817087;29;20059;-69
2021/06/05 03:42:14;;;;;;;5.00;4.07;;;13.50;66.30;;;;;;4811881;29;20067;-72
2021/06/05 03:44:43;;;;;;;6.15;3.88;;;13.50;66.40;;;;;;4814419;29;20051;-71
2021/06/05 03:47:12;;;;;;;6.05;4.22;;;13.40;66.40;;;;;;4790613;30;20055;-73
2021/06/05 03:49:42;;;;;;;6.05;3.97;;;13.40;66.50;;;;;;4789210;30;20066;-72
2021/06/05 03:52:14;;;;;;;4.70;3.78;;;13.40;66.50;;;;;;4804345;29;20055;-71
2021/06/05 03:54:42;;;;;;;6.85;3.78;;;13.40;66.60;;;;;;4789821;29;20070;-69
2021/06/05 03:57:10;;;;;;;7.60;3.67;;;13.30;66.60;;;;;;4788676;29;20082;-70
2021/06/05 03:59:39;;;;;;;7.03;3.90;;;13.30;66.60;;;;;;4789881;29;20059;-71
2021/06/05 04:02:07;;;;;;;7.25;4.10;;;13.30;66.70;;;;;;4803771;29;20094;-71
2021/06/05 04:04:35;;;;;;;9.90;3.97;;;13.30;66.70;;;;;;4789740;29;20055;-71
2021/06/05 04:07:08;;;;;;;4.95;3.72;;;13.30;66.70;;;;;;4791170;29;20059;-70
2021/06/05 04:09:37;;;;;;;4.70;3.42;;;13.30;66.80;;;;;;4790417;29;20055;-70
2021/06/05 04:12:07;;;;;;;7.43;4.05;;;13.20;66.90;;;;;;4791441;29;20055;-69
2021/06/05 04:14:35;;;;;;;7.93;3.80;;;13.20;66.90;;;;;;4791337;29;20513;-70
2021/06/05 04:17:06;;;;;;;6.55;3.40;;;13.20;66.90;;;;;;4789954;29;20070;-70
2021/06/05 04:19:36;;;;;;;9.02;4.28;;;13.20;66.80;;;;;;4791397;29;20066;-68
2021/06/05 04:22:07;;;;;;;5.55;3.58;;;13.20;66.80;;;;;;4789367;29;20063;-70
2021/06/05 04:24:36;;;;;;;7.43;3.78;;;13.20;66.80;;;;;;4792606;29;20086;-68
2021/06/05 04:27:06;;;;;;;8.52;3.97;;;13.20;66.90;;;;;;4790814;29;20491;-68
2021/06/05 04:29:35;;;;;;;4.70;3.97;;;13.20;66.90;;;;;;4789586;29;20055;-69
2021/06/05 04:32:05;;;;;;;6.43;4.20;;;13.20;66.90;;;;;;4790477;29;20062;-72
2021/06/05 04:34:33;;;;;;;6.05;3.85;;;13.20;66.90;;;;;;4790906;29;20367;-73
2021/06/05 04:37:01;;;;;;;5.40;4.38;;;13.20;66.90;;;;;;4789606;29;20475;-70
2021/06/05 04:39:33;;;;;;;4.95;4.22;;;13.10;66.90;;;;;;4790009;30;20391;-73
2021/06/05 04:42:01;;;;;;;8.10;5.18;;;13.10;67.10;;;;;;4774521;29;20071;-71
2021/06/05 04:44:29;;;;;;;5.57;5.07;;;13.10;67.10;;;;;;4785391;30;20082;-70
2021/06/05 04:46:57;;;;;;;6.45;4.85;;;13.10;67.20;;;;;;4773199;30;20060;-70
2021/06/05 04:49:25;;;;;;;6.45;5.82;;;13.00;67.40;;;;;;4771942;30;20307;-71
2021/06/05 04:51:54;;;;;;;7.22;6.53;;;13.00;67.50;;;;;;4771721;30;20052;-69
2021/06/05 04:54:22;;;;;;;7.80;6.63;;;13.00;67.70;;;;;;4772308;30;20060;-70
2021/06/05 04:56:51;;;;;;;8.80;6.45;;;13.00;67.80;;;;;;4771067;30;20056;-69
2021/06/05 04:59:21;;;;;;;7.13;5.90;;;13.00;67.90;;;;;;4781905;30;20059;-72
2021/06/05 05:01:49;;;;;;;8.20;6.57;;;13.00;68.00;;;;;;4790475;29;20067;-71
2021/06/05 05:04:18;;;;;;;7.35;5.95;;;13.10;68.00;;;;;;4789353;29;20066;-72
2021/06/05 05:06:46;;;;;;;7.75;5.43;;;13.10;68.00;;;;;;4790365;29;20070;-70
2021/06/05 05:09:14;;;;;;;6.07;4.95;;;13.10;68.10;;;;;;4789086;29;20066;-72
2021/06/05 05:11:43;;;;;;;5.40;4.75;;;13.10;68.20;;;;;;4789949;29;20475;-69
2021/06/05 05:14:12;;;;;;;6.22;4.63;;;13.20;68.30;;;;;;4790620;29;20059;-72
2021/06/05 05:16:40;;;;;;;6.70;5.13;;;13.20;68.40;;;;;;4779503;29;20059;-68
2021/06/05 05:19:08;;;;;;;6.70;4.72;;;13.20;68.40;;;;;;4772054;30;20059;-69
2021/06/05 05:21:37;;;;;;;5.82;4.45;;;13.20;68.50;;;;;;4772013;30;20075;-70
2021/06/05 05:24:06;;;;;;;6.82;4.60;;;13.20;68.60;;;;;;4770904;30;20063;-72
2021/06/05 05:26:34;;;;;;;5.20;4.70;;;13.20;68.60;;;;;;4772299;30;20502;-68
2021/06/05 05:29:02;;;;;;;9.38;4.80;;;13.20;68.70;;;;;;4779412;30;20065;-70
2021/06/05 05:31:30;;;;;;;6.38;4.82;;;13.20;68.90;;;;;;4802505;29;20066;-68
2021/06/05 05:34:00;;;;;;;6.95;5.40;;;13.30;69.00;;;;;;4789741;29;20055;-69
2021/06/05 05:36:32;;;;;;;5.45;4.90;;;13.30;69.10;;;;;;4788565;29;20059;-68
2021/06/05 05:39:01;;;;;;;6.50;5.20;;;13.30;69.30;;;;;;4787248;29;20059;-72
2021/06/05 05:41:29;;;;;;;6.00;4.63;;;13.30;69.50;;;;;;4789753;29;20368;-70
2021/06/05 05:43:58;;;;;;;6.18;4.68;;;13.30;69.70;;;;;;4788450;29;20414;-70
2021/06/05 05:46:26;;;;;;;8.90;4.95;;;13.20;70.00;;;;;;4803634;29;20055;-69
2021/06/05 05:48:55;;;;;;;7.85;4.75;;;13.30;70.10;;;;;;4803413;29;20062;-72
2021/06/05 05:51:23;;;;;;;6.60;4.45;;;13.20;70.10;;;;;;4788485;29;20078;-69
2021/06/05 05:53:52;;;;;;;5.53;4.05;;;13.30;70.20;;;;;;4789290;29;20474;-71
2021/06/05 05:56:24;;;;;;;5.20;4.22;;;13.30;70.30;;;;;;4788488;29;20051;-72
2021/06/05 05:58:55;;;;;;;6.97;4.00;;;13.30;70.30;;;;;;4788749;29;20503;-72
2021/06/05 06:01:25;;;;;;;6.68;4.03;;;13.30;70.30;;;;;;4789702;29;20059;-70
2021/06/05 06:03:56;;;;;;;3.72;3.42;;;13.40;70.30;;;;;;4788084;29;20530;-70
2021/06/05 06:06:27;;;;;;;4.60;3.38;;;13.40;70.30;;;;;;4789769;29;20074;-71
2021/06/05 06:08:54;;;;;;;6.97;3.40;;;13.50;70.20;;;;;;4789613;29;20486;-72
2021/06/05 06:11:23;;;;;;;7.05;3.55;;;13.50;70.10;;;;;;4788312;29;20513;-71
2021/06/05 06:13:51;;;;;;;7.55;3.53;;;13.50;70.10;;;;;;4789457;29;20051;-70
2021/06/05 06:16:19;;;;;;;7.38;3.47;;;13.60;70.10;;;;;;4784647;29;20056;-71
2021/06/05 06:18:47;;;;;;;5.55;3.20;;;13.60;70.00;;;;;;4771982;30;20059;-71
2021/06/05 06:21:18;;;;;;;7.15;3.40;;;13.70;70.00;;;;;;4771861;29;20059;-69
2021/06/05 06:23:46;;;;;;;7.93;3.00;;;13.70;70.00;;;;;;4784151;30;20368;-69
2021/06/05 06:26:25;;;;;;;11.40;2.90;;;13.70;70.10;;;;;;4771437;30;20464;-71
2021/06/05 06:28:56;;;;;;;3.80;3.15;;;13.80;70.20;;;;;;4791728;29;20051;-71
2021/06/05 06:31:24;;;;;;;5.35;3.03;;;13.80;70.20;;;;;;4788015;29;20043;-71
2021/06/05 06:33:52;;;;;;;6.57;3.15;;;13.80;70.30;;;;;;4789196;29;20051;-72
2021/06/05 06:36:21;;;;;;;5.00;2.80;;;13.90;70.40;;;;;;4802211;29;20051;-69
2021/06/05 06:38:50;;;;;;;4.90;2.92;;;13.90;70.40;;;;;;4788465;30;20070;-72
2021/06/05 06:41:27;;;;;;;8.15;2.97;;;14.00;70.40;;;;;;4788978;29;20063;-69
2021/06/05 06:43:56;;;;;;;5.75;2.53;;;14.00;70.30;;;;;;4788004;29;20502;-72
2021/06/05 06:46:27;;;;;;;3.28;2.30;;;14.00;70.10;;;;;;4789352;29;20055;-72
2021/06/05 06:48:57;;;;;;;5.88;2.60;;;14.00;69.80;;;;;;4789102;29;20066;-71
2021/06/05 06:51:26;;;;;;;4.47;2.40;;;14.10;69.60;;;;;;4787009;30;20043;-69
2021/06/05 06:53:55;;;;;;;4.53;3.08;;;14.10;69.50;;;;;;4788795;29;20086;-71
2021/06/05 06:56:24;;;;;;;4.18;2.72;;;14.20;69.30;;;;;;4787941;29;20070;-68
2021/06/05 06:58:52;;;;;;;8.93;2.80;;;14.20;69.10;;;;;;4788908;29;20059;-71
2021/06/05 07:01:23;;;;;;;5.30;3.00;;;14.20;69.00;;;;;;4789182;29;20063;-68
2021/06/05 07:03:52;;;;;;;7.78;2.40;;;14.30;68.90;;;;;;4801999;29;20426;-70
2021/06/05 07:06:21;;;;;;;7.28;2.80;;;14.30;68.80;;;;;;4788837;29;20074;-69
2021/06/05 07:08:49;;;;;;;4.60;2.30;;;14.30;68.70;;;;;;4789134;29;20490;-69
2021/06/05 07:11:28;;;;;;;4.78;2.25;;;14.30;68.50;;;;;;4801636;29;20051;-72
2021/06/05 07:14:00;;;;;;;6.85;2.67;;;14.40;68.40;;;;;;4788817;29;20055;-68
2021/06/05 07:16:29;;;;;;;3.58;2.58;;;14.50;68.30;;;;;;4798450;29;20052;-70
2021/06/05 07:18:57;;;;;;;7.18;3.58;;;14.50;68.30;;;;;;4788120;30;20067;-68
2021/06/05 07:21:25;;;;;;;3.92;3.08;;;14.60;68.20;;;;;;4776928;29;20071;-69
2021/06/05 07:23:53;;;;;;;3.83;2.70;;;14.70;68.30;;;;;;4772992;30;20064;-71
2021/06/05 07:26:27;;;;;;;3.88;2.90;;;14.60;68.40;;;;;;4774152;30;20067;-69
2021/06/05 07:28:59;;;;;;;6.43;3.17;;;14.70;68.50;;;;;;4795145;29;20055;-69
2021/06/05 07:31:31;;;;;;;7.10;2.97;;;14.80;68.50;;;;;;4804763;29;20062;-67
2021/06/05 07:33:59;;;;;;;3.45;2.40;;;14.80;68.60;;;;;;4791811;29;20074;-69
2021/06/05 07:36:40;;;;;;;4.32;2.20;;;14.80;68.40;;;;;;4805070;29;20055;-70
2021/06/05 07:39:11;;;;;;;8.15;2.50;;;14.90;68.10;;;;;;4805941;29;20082;-69
2021/06/05 07:41:41;;;;;;;3.45;1.88;;;14.90;67.80;;;;;;4791573;29;20063;-71
2021/06/05 07:44:12;;;;;;;6.05;2.08;;;15.00;67.60;;;;;;4790777;29;20055;-68
2021/06/05 07:46:49;;;;;;;4.78;1.73;;;15.10;67.30;;;;;;4791529;29;20055;-71
2021/06/05 07:49:17;;;;;;;3.47;1.73;;;15.10;66.90;;;;;;4787609;29;20059;-71
2021/06/05 07:51:46;;;;;;;4.88;1.40;;;15.20;66.70;;;;;;4791568;29;20154;-71
2021/06/05 07:54:14;;;;;;;3.45;0.98;;;15.20;66.50;;;;;;4790399;30;20052;-70
2021/06/05 07:56:47;;;;;;;3.05;1.00;;;15.30;66.20;;;;;;4790103;29;20482;-70
2021/06/05 07:59:21;;;;;;;3.83;1.50;;;15.30;65.60;;;;;;4791795;29;20059;-71
2021/06/05 08:01:50;;;;;;;3.47;1.08;;;15.40;65.20;;;;;;4791483;29;20055;-69
2021/06/05 08:04:18;;;;;;;5.80;0.90;;;15.40;64.80;;;;;;4790300;29;20051;-68
2021/06/05 08:06:47;;;;;;;5.25;0.90;;;15.50;64.20;;;;;;4791748;29;20059;-69
2021/06/05 08:09:16;;;;;;;3.63;1.05;;;15.50;63.70;;;;;;4804803;29;20054;-71
2021/06/05 08:11:44;;;;;;;2.67;1.17;;;15.60;63.60;;;;;;4805706;29;20059;-71
2021/06/05 08:14:19;;;;;;;1.50;0.70;;;15.70;63.20;;;;;;4790697;30;20051;-69
2021/06/05 08:16:47;;;;;;;4.38;1.30;;;15.70;62.70;;;;;;4782649;29;20064;-68
2021/06/05 08:19:15;;;;;;;6.53;1.05;;;15.80;62.60;;;;;;4773090;30;20075;-71
2021/06/05 08:21:46;;;;;;;4.15;0.90;;;15.80;62.30;;;;;;4772947;30;20064;-68
2021/06/05 08:24:17;;;;;;;5.20;1.40;;;15.90;61.90;;;;;;4772332;30;20074;-70
2021/06/05 08:26:46;;;;;;;4.07;1.00;;;16.00;61.60;;;;;;4773639;29;20070;-71
2021/06/05 08:29:14;;;;;;;4.32;1.20;;;16.00;61.50;;;;;;4780842;30;20066;-68
2021/06/05 08:31:43;;;;;;;3.20;1.35;;;16.00;61.20;;;;;;4790656;29;20081;-69
2021/06/05 08:34:12;;;;;;;2.83;1.40;;;16.10;61.10;;;;;;4791401;29;20055;-70
2021/06/05 08:36:40;;;;;;;6.85;1.63;;;16.20;61.00;;;;;;4789762;29;20399;-67
2021/06/05 08:39:08;;;;;;;4.18;1.55;;;16.20;60.90;;;;;;4791018;29;20460;-71
2021/06/05 08:41:45;;;;;;;2.50;1.40;;;16.30;60.90;;;;;;4791529;29;20059;-68
2021/06/05 08:44:37;;;;;;;3.63;1.38;;;16.30;60.60;;;;;;4789474;30;20078;-70
2021/06/05 08:47:16;;;;;;;3.42;1.60;;;16.40;60.40;;;;;;4791055;29;20051;-69
2021/06/05 08:49:46;;;;;;;4.75;1.80;;;16.40;60.30;;;;;;4788876;30;20063;-68
2021/06/05 08:52:30;;;;;;;3.15;1.77;;;16.50;60.10;;;;;;4790398;29;20475;-71
2021/06/05 08:55:07;;;;;;;2.38;1.50;;;16.60;60.00;;;;;;4789755;30;20063;-68
2021/06/05 08:57:51;;;;;;;2.80;1.80;;;16.60;60.00;;;;;;4803444;29;20386;-69
2021/06/05 09:00:26;;;;;;;5.03;1.60;;;16.70;59.40;;;;;;4804441;29;20059;-70
2021/06/05 09:03:19;;;;;;;3.85;1.38;;;16.70;59.20;;;;;;4803143;29;20063;-67
2021/06/05 09:06:01;;;;;;;3.50;2.03;;;16.70;59.30;;;;;;4790743;29;20058;-69
2021/06/05 09:08:30;;;;;;;7.57;2.10;;;16.80;59.40;;;;;;4790400;29;20055;-68
2021/06/05 09:11:11;;;;;;;5.10;1.80;;;16.80;59.60;;;;;;4789030;29;20075;-69
2021/06/05 09:13:40;;;;;;;2.67;2.00;;;16.90;59.70;;;;;;4790309;29;20055;-70
2021/06/05 09:16:20;;;;;;;3.60;2.05;;;16.90;59.90;;;;;;4786361;29;20074;-70
2021/06/05 09:18:49;;;;;;;4.78;2.05;;;17.00;59.70;;;;;;4771608;30;20055;-70
2021/06/05 09:21:49;;;;;;;6.65;2.00;;;17.00;59.90;;;;;;4772924;29;20067;-68
2021/06/05 09:24:27;;;;;;;4.57;1.63;;;17.10;59.80;;;;;;4774328;30;20062;-70
2021/06/05 09:27:17;;;;;;;6.72;1.48;;;17.20;59.60;;;;;;4786242;30;20387;-68
2021/06/05 09:29:50;;;;;;;2.63;1.40;;;17.20;59.20;;;;;;4785955;30;20082;-69
2021/06/05 09:32:23;;;;;;;3.33;1.30;;;17.30;58.20;;;;;;4790179;29;20059;-70
2021/06/05 09:35:13;;;;;;;2.20;1.10;;;17.30;57.80;;;;;;4790380;29;20391;-69
2021/06/05 09:37:43;;;;;;;5.00;1.50;;;17.30;57.80;;;;;;4788646;29;20070;-69
2021/06/05 09:40:24;;;;;;;3.88;1.52;;;17.40;57.60;;;;;;4788549;30;20059;-71
2021/06/05 09:42:56;;;;;;;4.63;1.50;;;17.50;57.20;;;;;;4788839;29;20059;-69
2021/06/05 09:45:36;;;;;;;3.05;1.50;;;17.60;57.00;;;;;;4789352;30;20059;-69
2021/06/05 09:48:21;;;;;;;3.15;1.60;;;17.70;56.90;;;;;;4788342;29;20059;-69
2021/06/05 09:50:52;;;;;;;2.05;1.33;;;17.80;57.10;;;;;;4770629;30;20055;-69
2021/06/05 09:53:36;;;;;;;3.70;1.65;;;17.80;56.80;;;;;;4770747;30;20467;-70
2021/06/05 09:56:10;;;;;;;5.18;1.48;;;17.90;56.40;;;;;;4770764;30;20060;-68
2021/06/05 09:58:44;;;;;;;3.55;1.92;;;18.00;56.10;;;;;;4790636;29;20074;-68
2021/06/05 10:01:21;;;;;;;4.72;1.77;;;18.00;56.00;;;;;;4788665;30;20074;-71
2021/06/05 10:03:55;;;;;;;2.80;1.40;;;18.10;55.70;;;;;;4788406;29;20090;-68
2021/06/05 10:06:46;;;;;;;6.95;1.80;;;18.20;55.70;;;;;;4789907;29;20070;-70
2021/06/05 10:09:26;;;;;;;9.20;1.30;;;18.30;55.80;;;;;;4788332;29;20074;-68
2021/06/05 10:12:12;;;;;;;3.20;1.30;;;18.30;55.10;;;;;;4789554;29;20056;-71
2021/06/05 10:14:50;;;;;;;3.97;1.60;;;18.50;54.30;;;;;;4803555;29;20059;-69
2021/06/05 10:17:25;;;;;;;5.80;1.90;;;18.60;53.80;;;;;;4777447;29;20055;-69
2021/06/05 10:19:59;;;;;;;4.93;1.70;;;18.70;53.50;;;;;;4785483;30;20059;-68
2021/06/05 10:22:28;;;;;;;3.70;1.40;;;18.80;52.80;;;;;;4784051;29;20372;-67
2021/06/05 10:25:17;;;;;;;3.17;1.35;;;18.80;52.30;;;;;;4771908;30;20071;-69
2021/06/05 10:27:47;;;;;;;3.55;1.20;;;18.90;52.40;;;;;;4785476;30;20060;-69
2021/06/05 10:30:39;;;;;;;3.05;1.65;;;19.10;52.70;;;;;;4786596;30;20055;-69
2021/06/05 10:33:15;;;;;;;4.80;1.25;;;19.30;52.20;;;;;;4789188;29;20059;-69
2021/06/05 10:35:44;;;;;;;2.35;0.95;;;19.40;51.10;;;;;;4803343;29;20394;-68
2021/06/05 10:38:32;;;;;;;3.70;1.23;;;19.60;50.50;;;;;;4789375;29;20071;-71
2021/06/05 10:41:00;;;;;;;4.28;1.30;;;19.70;50.40;;;;;;4789382;29;20078;-69
2021/06/05 10:43:27;;;;;;;1.60;0.98;;;19.80;50.70;;;;;;4788039;29;20063;-69
2021/06/05 10:45:57;;;;;;;3.45;0.90;;;20.00;50.70;;;;;;4789281;29;20055;-68
2021/06/05 10:48:31;;;;;;;1.98;0.93;;;20.10;49.90;;;;;;4789225;29;20055;-69
2021/06/05 10:51:04;;;;;;;2.90;1.02;;;20.20;49.20;;;;;;4803416;29;20058;-70
2021/06/05 10:53:35;;;;;;;;;;;20.30;48.50;;;;;;4792844;29;20070;-69
2021/06/05 10:56:18;;;;;;;2.13;0.80;;;20.40;48.40;;;;;;4805507;29;20238;-70
2021/06/05 10:58:52;;;;;;;2.47;0.73;;;20.60;48.30;;;;;;4806841;29;20059;-69
2021/06/05 11:01:29;;;;;;;1.50;0.68;;;20.70;48.10;;;;;;4792512;29;20080;-71
2021/06/05 11:04:01;;;;;;;5.45;1.55;;;20.90;45.90;;;;;;4791167;29;20070;-68
2021/06/05 11:06:47;;;;;;;1.55;0.55;;;21.00;45.60;;;;;;4792310;29;20055;-68
2021/06/05 11:09:29;;;;;;;1.70;0.75;;;21.20;44.60;;;;;;4805089;29;20063;-71
2021/06/05 11:12:04;;;;;;;1.42;0.57;;;21.30;44.40;;;;;;4792148;29;20467;-68
2021/06/05 11:14:35;;;;;;;2.47;0.82;;;21.40;44.30;;;;;;4806837;29;20052;-68
2021/06/05 11:17:21;;;;;;;2.65;0.90;;;21.50;43.60;;;;;;4781911;29;20055;-68
2021/06/05 11:19:53;;;;;;;2.95;0.70;;;21.60;43.50;;;;;;4774345;30;20056;-70
2021/06/05 11:22:24;;;;;;;1.25;0.50;;;21.80;43.40;;;;;;4776720;29;20059;-69
2021/06/05 11:25:07;;;;;;;1.38;0.75;;;21.80;42.40;;;;;;4774237;30;20071;-68
2021/06/05 11:27:37;;;;;;;2.17;0.50;;;21.80;42.00;;;;;;4774412;30;20471;-70
2021/06/05 11:30:20;;;;;;;0.95;0.50;;;21.80;42.20;;;;;;4788337;30;20055;-69
2021/06/05 11:33:07;;;;;;;0.88;0.40;;;21.80;41.10;;;;;;4791777;29;20074;-68
2021/06/05 11:35:58;;;;;;;1.38;0.38;;;21.80;41.00;;;;;;4792367;29;20055;-71
2021/06/05 11:38:26;;;;;;;2.42;0.60;;;21.90;40.80;;;;;;4791976;29;20063;-70
2021/06/05 11:41:31;;;;;;;3.22;0.65;;;21.90;39.70;;;;;;4806013;29;20055;-70
2021/06/05 11:44:38;;;;;;;1.42;0.70;;;21.90;39.50;;;;;;4804495;29;20062;-68
2021/06/05 11:47:18;;;;;;;2.35;0.98;;;22.10;39.70;;;;;;4807436;29;20074;-69
2021/06/05 11:49:55;;;;;;;1.42;0.60;;;22.10;39.90;;;;;;4791927;29;20067;-68
2021/06/05 11:52:26;;;;;;;2.25;0.70;;;22.10;39.70;;;;;;4791630;29;20090;-71
2021/06/05 11:55:08;;;;;;;4.05;0.60;;;22.20;39.80;;;;;;4790963;29;20067;-69
2021/06/05 11:57:43;;;;;;;2.85;0.98;;;22.20;39.40;;;;;;4804543;29;20059;-71
2021/06/05 12:00:16;;;;;;;1.52;0.90;;;22.30;39.40;;;;;;4793050;29;20055;-70
2021/06/05 12:02:45;;;;;;;;;;;22.30;39.50;;;;;;4790269;29;20062;-71
2021/06/05 12:05:25;;;;;;;1.92;1.00;;;22.40;39.60;;;;;;4805219;29;20252;-70
2021/06/05 12:07:54;;;;;;;2.28;1.10;;;22.50;39.60;;;;;;4791698;29;20066;-71
2021/06/05 12:10:36;;;;;;;2.78;1.10;;;22.60;39.30;;;;;;4789704;29;20059;-69
2021/06/05 12:13:06;;;;;;;1.52;0.70;;;22.70;38.80;;;;;;4791261;29;20052;-71
2021/06/05 12:15:39;;;;;;;1.63;1.02;;;22.70;38.60;;;;;;4791331;29;20071;-70
2021/06/05 12:18:25;;;;;;;1.75;0.90;;;22.70;38.20;;;;;;4789134;30;20055;-70
2021/06/05 12:20:55;;;;;;;1.63;0.63;;;22.70;38.30;;;;;;4790833;29;20078;-70
2021/06/05 12:23:32;;;;;;;3.75;0.93;;;22.70;37.30;;;;;;4802667;29;20047;-68
2021/06/05 12:26:13;;;;;;;3.50;1.48;;;22.70;36.90;;;;;;4815653;29;20069;-68
2021/06/05 12:28:47;;;;;;;2.75;1.10;;;22.80;37.10;;;;;;4802928;29;20061;-71
2021/06/05 12:31:30;;;;;;;2.25;0.73;;;22.90;37.10;;;;;;4805453;29;20054;-69
2021/06/05 12:34:09;;;;;;;1.70;0.85;;;22.90;36.70;;;;;;4791604;29;20478;-69
2021/06/05 12:36:39;;;;;;;6.18;1.02;;;22.90;36.60;;;;;;4790459;29;20063;-69
2021/06/05 12:39:20;;;;;;;2.10;1.00;;;22.90;36.50;;;;;;4817375;29;20374;-71
2021/06/05 12:41:51;;;;;;;2.47;0.90;;;23.00;36.70;;;;;;4804267;29;20055;-70
2021/06/05 12:44:23;;;;;;;2.65;1.25;;;23.10;36.80;;;;;;4797503;29;20066;-68
2021/06/05 12:46:51;;;;;;;2.08;0.90;;;23.20;36.60;;;;;;4800081;29;20482;-68
2021/06/05 12:49:25;;;;;;;2.25;0.90;;;23.20;36.50;;;;;;4799383;29;20051;-69
2021/06/05 12:51:58;;;;;;;1.88;0.90;;;23.30;36.60;;;;;;4798492;29;20069;-70
2021/06/05 12:54:28;;;;;;;2.92;1.30;;;23.30;36.50;;;;;;4791158;29;20086;-68
2021/06/05 12:56:59;;;;;;;2.38;1.15;;;23.30;36.80;;;;;;4803612;29;20078;-70
2021/06/05 12:59:36;;;;;;;1.13;0.90;;;23.50;37.00;;;;;;4790865;29;20078;-68
2021/06/05 13:02:28;;;;;;;0.82;0.80;;;23.70;36.30;;;;;;4805068;29;20058;-69
2021/06/05 13:05:08;;;;;;;1.30;0.80;;;23.70;35.70;;;;;;4785200;30;20070;-70
2021/06/05 13:07:42;;;;;;;2.22;0.90;;;23.70;35.80;;;;;;4793315;29;20055;-68
2021/06/05 13:10:36;;;;;;;1.60;0.90;;;23.80;35.50;;;;;;4807767;29;20398;-68
2021/06/05 13:13:12;;;;;;;3.90;1.10;;;23.80;35.50;;;;;;4822213;29;20148;-70
2021/06/05 13:15:46;;;;;;;1.77;0.82;;;23.90;35.70;;;;;;4804137;29;20059;-69
2021/06/05 13:18:35;;;;;;;2.38;0.80;;;24.10;35.90;;;;;;4798794;29;20055;-70
2021/06/05 13:21:15;;;;;;;1.20;0.80;;;24.20;35.40;;;;;;4790481;29;20066;-70